createdAt,value
2018-12-11T00:02:34.771Z,101261.94
2018-12-11T00:05:04.043Z,101259.19
2018-12-11T00:10:01.271Z,101262.55
2018-12-11T00:12:30.615Z,101259.25
2018-12-11T00:14:59.874Z,101261.48
2018-12-11T00:19:57.156Z,101266.99
2018-12-11T00:22:26.424Z,101262.57
2018-12-11T00:24:55.695Z,101265.86
2018-12-11T00:27:24.963Z,101263.95
2018-12-11T00:29:54.231Z,101260.10
2018-12-11T00:32:23.515Z,101257.36
2018-12-11T00:34:52.791Z,101257.39
2018-12-11T00:37:22.088Z,101253.27
2018-12-11T00:39:51.359Z,101249.70
2018-12-11T00:42:20.653Z,101252.97
2018-12-11T00:44:49.916Z,101251.56
2018-12-11T00:47:19.179Z,101252.09
2018-12-11T00:49:48.463Z,101250.41
2018-12-11T00:52:17.727Z,101257.58
2018-12-11T00:54:47.009Z,101264.69
2018-12-11T00:57:16.280Z,101260.56
2018-12-11T00:59:45.563Z,101260.56
2018-12-11T01:02:14.818Z,101260.30
2018-12-11T01:04:44.086Z,101255.59
2018-12-11T01:07:13.358Z,101263.83
2018-12-11T01:09:42.634Z,101270.42
2018-12-11T01:12:11.900Z,101266.83
2018-12-11T01:14:41.178Z,101275.31
2018-12-11T01:17:10.437Z,101286.84
2018-12-11T01:19:39.707Z,101285.47
2018-12-11T01:22:08.968Z,101280.80
2018-12-11T01:24:38.239Z,101282.48
2018-12-11T01:27:07.506Z,101277.53
2018-12-11T01:29:36.783Z,101286.32
2018-12-11T01:32:06.102Z,101281.66
2018-12-11T01:34:35.387Z,101288.84
2018-12-11T01:37:04.651Z,101290.77
2018-12-11T01:39:33.938Z,101292.97
2018-12-11T01:42:03.748Z,101299.28
2018-12-11T01:44:33.018Z,101294.09
2018-12-11T01:47:02.274Z,101300.44
2018-12-11T01:49:31.550Z,101304.27
2018-12-11T01:52:00.833Z,101302.41
2018-12-11T01:54:30.121Z,101311.47
2018-12-11T01:56:59.378Z,101317.25
2018-12-11T01:59:28.655Z,101321.37
2018-12-11T02:01:57.914Z,101317.83
2018-12-11T02:04:27.187Z,101318.41
2018-12-11T02:06:56.453Z,101317.36
2018-12-11T02:09:25.730Z,101323.42
2018-12-11T02:11:54.994Z,101323.74
2018-12-11T02:14:24.272Z,101324.59
2018-12-11T02:16:53.533Z,101322.99
2018-12-11T02:19:22.813Z,101323.81
2018-12-11T02:21:52.084Z,101321.07
2018-12-11T02:24:21.379Z,101331.80
2018-12-11T02:26:50.640Z,101336.75
2018-12-11T02:29:19.925Z,101334.59
2018-12-11T02:31:49.211Z,101334.86
2018-12-11T02:34:18.497Z,101335.16
2018-12-11T02:36:47.768Z,101342.31
2018-12-11T02:39:17.053Z,101351.64
2018-12-11T02:41:46.308Z,101349.19
2018-12-11T02:44:35.181Z,101354.13
2018-12-11T02:49:53.755Z,101355.27
2018-12-11T02:52:23.027Z,101356.69
2018-12-11T02:54:52.310Z,101357.53
2018-12-11T02:57:21.567Z,101362.47
2018-12-11T02:59:50.855Z,101356.44
2018-12-11T03:02:20.127Z,101360.02
2018-12-11T03:04:49.419Z,101362.47
2018-12-11T03:07:18.684Z,101357.55
2018-12-11T03:09:47.968Z,101361.41
2018-12-11T03:12:17.240Z,101369.94
2018-12-11T03:14:46.524Z,101367.46
2018-12-11T03:17:15.785Z,101364.72
2018-12-11T03:19:45.073Z,101368.30
2018-12-11T03:22:14.350Z,101367.48
2018-12-11T03:24:43.608Z,101373.56
2018-12-11T03:27:12.882Z,101379.29
2018-12-11T03:29:42.164Z,101377.66
2018-12-11T03:32:11.451Z,101374.62
2018-12-11T03:35:00.591Z,101372.48
2018-12-11T03:37:29.882Z,101377.38
2018-12-11T03:39:59.138Z,101385.61
2018-12-11T03:42:28.428Z,101377.97
2018-12-11T03:44:57.689Z,101381.02
2018-12-11T03:47:46.576Z,101382.11
2018-12-11T03:53:11.025Z,101390.95
2018-12-11T03:55:40.291Z,101390.13
2018-12-11T03:58:09.565Z,101391.25
2018-12-11T04:00:38.844Z,101395.61
2018-12-11T04:03:08.135Z,101404.95
2018-12-11T04:05:37.412Z,101397.28
2018-12-11T04:08:06.703Z,101398.42
2018-12-11T04:10:35.965Z,101402.54
2018-12-11T04:13:05.249Z,101405.58
2018-12-11T04:15:34.862Z,101407.24
2018-12-11T04:18:04.136Z,101405.30
2018-12-11T04:20:33.404Z,101408.34
2018-12-11T04:23:02.687Z,101408.62
2018-12-11T04:25:31.944Z,101409.76
2018-12-11T04:28:01.231Z,101416.31
2018-12-11T04:30:30.504Z,101419.35
2018-12-11T04:32:59.788Z,101420.98
2018-12-11T04:35:48.935Z,101430.31
2018-12-11T04:38:18.217Z,101432.48
2018-12-11T04:40:47.541Z,101437.18
2018-12-11T04:43:16.762Z,101440.17
2018-12-11T04:46:05.086Z,101442.65
2018-12-11T04:48:34.379Z,101436.05
2018-12-11T04:51:03.641Z,101439.91
2018-12-11T04:53:32.921Z,101437.42
2018-12-11T04:56:02.187Z,101446.77
2018-12-11T04:58:31.463Z,101442.12
2018-12-11T05:01:00.723Z,101444.87
2018-12-11T05:03:30.014Z,101449.57
2018-12-11T05:05:59.296Z,101451.20
2018-12-11T05:08:28.584Z,101452.32
2018-12-11T05:10:57.843Z,101447.92
2018-12-11T05:13:27.128Z,101453.69
2018-12-11T05:18:24.392Z,101459.42
2018-12-11T05:20:53.672Z,101458.05
2018-12-11T05:23:22.958Z,101460.79
2018-12-11T05:25:52.231Z,101469.55
2018-12-11T05:28:21.523Z,101470.67
2018-12-11T05:30:50.792Z,101475.88
2018-12-11T05:33:20.114Z,101471.80
2018-12-11T05:35:49.364Z,101477.28
2018-12-11T05:38:18.676Z,101481.69
2018-12-11T05:40:47.949Z,101477.04
2018-12-11T05:43:17.217Z,101483.61
2018-12-11T05:45:46.520Z,101481.13
2018-12-11T05:48:15.792Z,101479.77
2018-12-11T05:50:45.092Z,101475.94
2018-12-11T05:53:14.359Z,101481.71
2018-12-11T05:55:43.642Z,101488.03
2018-12-11T05:58:32.506Z,101488.03
2018-12-11T06:01:01.794Z,101489.66
2018-12-11T06:03:31.069Z,101491.05
2018-12-11T06:06:00.386Z,101493.26
2018-12-11T06:08:29.674Z,101500.66
2018-12-11T06:10:59.010Z,101497.08
2018-12-11T06:13:28.285Z,101501.48
2018-12-11T06:15:57.576Z,101499.83
2018-12-11T06:18:26.849Z,101500.41
2018-12-11T06:20:56.155Z,101499.33
2018-12-11T06:23:25.420Z,101502.32
2018-12-11T06:25:54.706Z,101504.27
2018-12-11T06:28:23.970Z,101509.20
2018-12-11T06:30:53.255Z,101510.83
2018-12-11T06:33:22.528Z,101511.11
2018-12-11T06:35:51.803Z,101520.45
2018-12-11T06:38:21.067Z,101521.53
2018-12-11T06:40:50.356Z,101523.19
2018-12-11T06:43:19.622Z,101527.05
2018-12-11T06:45:48.899Z,101526.75
2018-12-11T06:48:18.164Z,101533.60
2018-12-11T06:50:47.446Z,101532.77
2018-12-11T06:53:36.578Z,101528.41
2018-12-11T06:56:05.876Z,101534.72
2018-12-11T06:58:35.135Z,101539.37
2018-12-11T07:01:04.428Z,101550.32
2018-12-11T07:03:33.682Z,101547.58
2018-12-11T07:06:03.014Z,101551.69
2018-12-11T07:08:32.286Z,101559.91
2018-12-11T07:11:01.576Z,101561.02
2018-12-11T07:13:30.845Z,101561.55
2018-12-11T07:16:00.123Z,101568.12
2018-12-11T07:18:29.392Z,101574.97
2018-12-11T07:20:58.667Z,101571.14
2018-12-11T07:23:27.941Z,101571.40
2018-12-11T07:25:57.219Z,101573.31
2018-12-11T07:28:26.494Z,101578.25
2018-12-11T07:30:55.784Z,101579.36
2018-12-11T07:33:25.047Z,101582.36
2018-12-11T07:35:54.329Z,101580.98
2018-12-11T07:38:23.605Z,101584.81
2018-12-11T07:40:52.890Z,101584.81
2018-12-11T07:43:22.165Z,101592.48
2018-12-11T07:45:51.444Z,101597.67
2018-12-11T07:48:20.716Z,101598.50
2018-12-11T07:50:49.991Z,101595.22
2018-12-11T07:53:19.257Z,101592.48
2018-12-11T07:55:48.543Z,101593.86
2018-12-11T07:58:17.806Z,101598.25
2018-12-11T08:00:47.074Z,101602.36
2018-12-11T08:03:16.352Z,101603.16
2018-12-11T08:05:45.618Z,101602.61
2018-12-11T08:08:33.605Z,101609.20
2018-12-11T08:11:02.882Z,101613.57
2018-12-11T08:13:32.138Z,101617.67
2018-12-11T08:16:01.501Z,101620.98
2018-12-11T08:18:30.769Z,101626.46
2018-12-11T08:21:00.037Z,101630.30
2018-12-11T08:23:29.311Z,101633.30
2018-12-11T08:25:58.649Z,101635.50
2018-12-11T08:28:27.910Z,101636.84
2018-12-11T08:30:57.183Z,101641.51
2018-12-11T08:33:26.447Z,101640.37
2018-12-11T08:35:55.731Z,101649.40
2018-12-11T08:38:24.983Z,101648.58
2018-12-11T08:40:54.263Z,101657.59
2018-12-11T08:43:23.522Z,101656.77
2018-12-11T08:45:52.801Z,101663.84
2018-12-11T08:48:22.071Z,101658.36
2018-12-11T08:50:51.346Z,101667.13
2018-12-11T08:53:20.607Z,101667.12
2018-12-11T08:55:49.901Z,101669.83
2018-12-11T08:58:19.195Z,101671.20
2018-12-11T09:00:48.488Z,101670.65
2018-12-11T09:03:17.762Z,101671.73
2018-12-11T09:05:47.029Z,101679.38
2018-12-11T09:08:16.300Z,101687.31
2018-12-11T09:10:45.596Z,101685.94
2018-12-11T09:13:14.874Z,101690.89
2018-12-11T09:15:44.148Z,101685.35
2018-12-11T09:18:13.433Z,101693.54
2018-12-11T09:20:42.699Z,101695.73
2018-12-11T09:23:11.991Z,101689.91
2018-12-11T09:25:41.256Z,101688.48
2018-12-11T09:28:30.144Z,101693.34
2018-12-11T09:30:59.411Z,101702.58
2018-12-11T09:33:28.700Z,101702.20
2018-12-11T09:35:57.969Z,101698.80
2018-12-11T09:38:27.254Z,101700.67
2018-12-11T09:40:56.521Z,101698.39
2018-12-11T09:43:25.799Z,101703.02
2018-12-11T09:45:55.076Z,101702.64
2018-12-11T09:48:24.359Z,101702.61
2018-12-11T09:50:53.619Z,101706.97
2018-12-11T09:53:22.911Z,101713.28
2018-12-11T09:55:52.186Z,101716.58
2018-12-11T09:58:21.471Z,101714.08
2018-12-11T10:00:50.747Z,101707.19
2018-12-11T10:03:20.026Z,101710.68
2018-12-11T10:05:49.302Z,101715.86
2018-12-11T10:10:54.346Z,101713.70
2018-12-11T10:13:43.494Z,101716.91
2018-12-11T10:16:12.766Z,101715.66
2018-12-11T10:18:42.050Z,101722.06
2018-12-11T10:21:11.314Z,101720.53
2018-12-11T10:26:16.342Z,101718.10
2018-12-11T10:28:45.639Z,101719.67
2018-12-11T10:31:14.894Z,101716.92
2018-12-11T10:33:44.169Z,101718.35
2018-12-11T10:36:13.437Z,101732.92
2018-12-11T10:38:42.709Z,101735.13
2018-12-11T10:41:11.981Z,101723.89
2018-12-11T10:43:41.273Z,101726.09
2018-12-11T10:46:10.527Z,101727.83
2018-12-11T10:48:39.799Z,101725.20
2018-12-11T10:51:09.064Z,101717.58
2018-12-11T10:53:38.344Z,101725.06
2018-12-11T10:56:07.609Z,101726.53
2018-12-11T10:58:36.907Z,101725.51
2018-12-11T11:01:24.896Z,101726.11
2018-12-11T11:03:54.262Z,101736.31
2018-12-11T11:06:23.552Z,101730.58
2018-12-11T11:08:52.861Z,101738.54
2018-12-11T11:11:22.131Z,101742.92
2018-12-11T11:13:51.415Z,101744.55
2018-12-11T11:16:20.698Z,101739.33
2018-12-11T11:18:49.981Z,101744.02
2018-12-11T11:21:19.242Z,101746.80
2018-12-11T11:23:48.555Z,101743.77
2018-12-11T11:26:17.898Z,101745.37
2018-12-11T11:28:47.233Z,101754.70
2018-12-11T11:31:16.518Z,101745.87
2018-12-11T11:33:45.793Z,101752.98
2018-12-11T11:36:15.086Z,101746.73
2018-12-11T11:38:44.373Z,101747.78
2018-12-11T11:41:13.662Z,101751.91
2018-12-11T11:43:42.935Z,101750.03
2018-12-11T11:46:20.005Z,101758.38
2018-12-11T11:48:49.232Z,101758.42
2018-12-11T11:51:18.506Z,101762.05
2018-12-11T11:53:47.829Z,101764.23
2018-12-11T11:56:17.102Z,101765.92
2018-12-11T11:58:46.377Z,101770.80
2018-12-11T12:01:15.677Z,101773.47
2018-12-11T12:03:44.945Z,101775.90
2018-12-11T12:06:14.260Z,101780.64
2018-12-11T12:08:43.549Z,101778.12
2018-12-11T12:11:12.843Z,101775.90
2018-12-11T12:13:42.123Z,101780.01
2018-12-11T12:16:11.402Z,101779.69
2018-12-11T12:18:40.668Z,101777.98
2018-12-11T12:21:09.949Z,101780.17
2018-12-11T12:23:58.317Z,101780.11
2018-12-11T12:26:28.407Z,101794.14
2018-12-11T12:28:57.774Z,101804.09
2018-12-11T12:34:02.816Z,101803.08
2018-12-11T12:36:32.100Z,101802.57
2018-12-11T12:39:01.369Z,101799.57
2018-12-11T12:41:30.654Z,101798.74
2018-12-11T12:43:59.923Z,101802.89
2018-12-11T12:46:29.202Z,101799.34
2018-12-11T12:48:58.473Z,101805.69
2018-12-11T12:51:27.752Z,101799.66
2018-12-11T12:53:57.028Z,101806.48
2018-12-11T12:56:26.326Z,101811.95
2018-12-11T12:58:55.607Z,101817.44
2018-12-11T13:01:24.883Z,101824.59
2018-12-11T13:04:13.741Z,101827.64
2018-12-11T13:09:18.731Z,101824.38
2018-12-11T13:11:47.995Z,101828.57
2018-12-11T13:14:17.260Z,101832.48
2018-12-11T13:16:46.540Z,101833.63
2018-12-11T13:19:15.801Z,101835.91
2018-12-11T13:21:45.076Z,101832.34
2018-12-11T13:24:14.353Z,101843.05
2018-12-11T13:26:43.629Z,101844.72
2018-12-11T13:29:12.884Z,101846.95
2018-12-11T13:31:42.164Z,101848.08
2018-12-11T13:34:11.443Z,101850.28
2018-12-11T13:36:40.712Z,101858.53
2018-12-11T13:39:09.977Z,101856.05
2018-12-11T13:41:39.256Z,101856.05
2018-12-11T13:44:08.505Z,101864.64
2018-12-11T13:49:13.386Z,101868.19
2018-12-11T13:51:42.657Z,101870.41
2018-12-11T13:54:11.921Z,101870.94
2018-12-11T13:56:41.193Z,101873.43
2018-12-11T13:59:10.439Z,101874.80
2018-12-11T14:01:39.690Z,101874.53
2018-12-11T14:04:08.959Z,101880.87
2018-12-11T14:06:38.231Z,101877.86
2018-12-11T14:09:27.213Z,101886.11
2018-12-11T14:11:56.573Z,101883.36
2018-12-11T14:14:25.834Z,101889.66
2018-12-11T14:16:55.137Z,101892.45
2018-12-11T14:19:24.387Z,101891.08
2018-12-11T14:21:53.655Z,101898.27
2018-12-11T14:24:22.912Z,101900.19
2018-12-11T14:26:52.184Z,101900.48
2018-12-11T14:29:21.443Z,101904.31
2018-12-11T14:31:50.730Z,101909.81
2018-12-11T14:34:20.029Z,101907.34
2018-12-11T14:36:49.288Z,101908.95
2018-12-11T14:39:18.561Z,101909.49
2018-12-11T14:41:47.931Z,101910.58
2018-12-11T14:44:17.140Z,101913.91
2018-12-11T14:46:46.406Z,101915.84
2018-12-11T14:49:15.686Z,101913.38
2018-12-11T14:51:44.952Z,101911.17
2018-12-11T14:54:14.238Z,101915.31
2018-12-11T14:56:43.497Z,101917.23
2018-12-11T14:59:12.783Z,101917.27
2018-12-11T15:01:42.040Z,101919.73
2018-12-11T15:04:11.367Z,101917.28
2018-12-11T15:06:40.632Z,101924.45
2018-12-11T15:09:29.021Z,101925.30
2018-12-11T15:11:58.291Z,101923.93
2018-12-11T15:14:27.562Z,101928.09
2018-12-11T15:16:56.828Z,101938.55
2018-12-11T15:19:26.109Z,101939.64
2018-12-11T15:21:55.433Z,101935.27
2018-12-11T15:24:24.704Z,101933.89
2018-12-11T15:26:53.968Z,101928.64
2018-12-11T15:29:23.255Z,101924.27
2018-12-11T15:31:52.542Z,101929.48
2018-12-11T15:34:21.808Z,101928.14
2018-12-11T15:36:51.079Z,101927.56
2018-12-11T15:39:20.349Z,101931.69
2018-12-11T15:41:49.615Z,101931.98
2018-12-11T15:44:18.894Z,101930.06
2018-12-11T15:46:48.239Z,101938.84
2018-12-11T15:49:17.545Z,101939.39
2018-12-11T15:51:46.801Z,101940.52
2018-12-11T15:54:16.075Z,101951.52
2018-12-11T15:57:04.476Z,101941.36
2018-12-11T15:59:33.755Z,101940.81
2018-12-11T16:02:03.015Z,101941.09
2018-12-11T16:04:32.374Z,101951.80
2018-12-11T16:07:01.630Z,101949.34
2018-12-11T16:09:49.632Z,101950.17
2018-12-11T16:12:18.898Z,101954.84
2018-12-11T16:14:48.159Z,101951.26
2018-12-11T16:17:17.441Z,101951.80
2018-12-11T16:19:46.702Z,101943.81
2018-12-11T16:22:15.992Z,101946.02
2018-12-11T16:29:56.571Z,101958.42
2018-12-11T16:32:25.833Z,101963.91
2018-12-11T16:34:55.187Z,101965.58
2018-12-11T16:37:24.636Z,101959.80
2018-12-11T16:39:53.929Z,101963.91
2018-12-11T16:42:23.183Z,101967.20
2018-12-11T16:44:52.489Z,101967.75
2018-12-11T16:47:21.745Z,101967.75
2018-12-11T16:49:51.014Z,101975.70
2018-12-11T16:52:20.276Z,101975.70
2018-12-11T16:55:09.418Z,101974.87
2018-12-11T16:57:38.711Z,101972.16
2018-12-11T17:00:08.664Z,101976.02
2018-12-11T17:02:37.930Z,101979.31
2018-12-11T17:05:07.202Z,101977.40
2018-12-11T17:07:36.475Z,101988.39
2018-12-11T17:10:06.393Z,101988.94
2018-12-11T17:12:35.734Z,101996.92
2018-12-11T17:15:05.380Z,102004.04
2018-12-11T17:17:34.729Z,102010.08
2018-12-11T17:20:04.081Z,102010.08
2018-12-11T17:22:33.345Z,102008.16
2018-12-11T17:25:02.666Z,102013.41
2018-12-11T17:27:31.945Z,102018.06
2018-12-11T17:30:01.213Z,102017.78
2018-12-11T17:32:30.490Z,102019.44
2018-12-11T17:34:59.767Z,102021.36
2018-12-11T17:37:29.043Z,102021.64
2018-12-11T17:39:58.316Z,102021.61
2018-12-11T17:42:27.598Z,102030.69
2018-12-11T17:44:56.858Z,102025.48
2018-12-11T17:47:26.154Z,102031.27
2018-12-11T17:49:55.421Z,102031.26
2018-12-11T17:52:24.687Z,102037.32
2018-12-11T17:54:53.991Z,102046.92
2018-12-11T17:57:23.258Z,102048.05
2018-12-11T17:59:52.598Z,102047.50
2018-12-11T18:02:26.476Z,102049.12
2018-12-11T18:04:56.139Z,102061.49
2018-12-11T18:07:25.405Z,102064.78
2018-12-11T18:09:54.734Z,102065.06
2018-12-11T18:12:24.099Z,102067.00
2018-12-11T18:14:53.365Z,102064.80
2018-12-11T18:17:22.657Z,102064.52
2018-12-11T18:19:51.918Z,102073.87
2018-12-11T18:22:21.281Z,102076.05
2018-12-11T18:24:50.542Z,102073.05
2018-12-11T18:27:19.819Z,102085.38
2018-12-11T18:29:49.086Z,102084.58
2018-12-11T18:32:22.292Z,102079.89
2018-12-11T18:37:39.002Z,102079.63
2018-12-11T18:40:09.817Z,102087.59
2018-12-11T18:42:39.093Z,102084.00
2018-12-11T18:45:09.133Z,102081.00
2018-12-11T18:47:38.398Z,102085.66
2018-12-11T18:50:07.974Z,102085.40
2018-12-11T18:52:37.255Z,102087.88
2018-12-11T18:55:06.729Z,102090.33
2018-12-11T18:57:36.009Z,102095.30
2018-12-11T19:00:05.947Z,102098.59
2018-12-11T19:02:35.227Z,102105.16
2018-12-11T19:05:04.492Z,102102.41
2018-12-11T19:07:33.774Z,102106.83
2018-12-11T19:10:03.045Z,102107.64
2018-12-11T19:12:32.324Z,102106.25
2018-12-11T19:15:04.764Z,102109.00
2018-12-11T19:17:31.757Z,102103.26
2018-12-11T19:20:01.017Z,102102.13
2018-12-11T19:22:30.282Z,102110.66
2018-12-11T19:24:59.796Z,102119.98
2018-12-11T19:27:29.063Z,102119.70
2018-12-11T19:29:58.335Z,102120.25
2018-12-11T19:32:27.592Z,102119.17
2018-12-11T19:34:56.871Z,102118.63
2018-12-11T19:37:26.136Z,102121.37
2018-12-11T19:40:01.911Z,102120.55
2018-12-11T19:42:25.593Z,102123.00
2018-12-11T19:44:54.866Z,102124.67
2018-12-11T19:47:24.135Z,102126.84
2018-12-11T19:49:53.435Z,102119.98
2018-12-11T19:52:22.697Z,102128.23
2018-12-11T19:54:51.975Z,102121.91
2018-12-11T19:57:21.260Z,102126.86
2018-12-11T19:59:50.537Z,102129.87
2018-12-11T20:02:19.796Z,102131.79
2018-12-11T20:04:49.067Z,102139.48
2018-12-11T20:07:19.323Z,102143.05
2018-12-11T20:10:27.113Z,102142.22
2018-12-11T20:15:48.308Z,102151.02
2018-12-11T20:18:19.783Z,102149.91
2018-12-11T20:20:49.045Z,102151.02
2018-12-11T20:23:18.327Z,102155.97
2018-12-11T20:25:48.206Z,102155.13
2018-12-11T20:28:18.123Z,102150.20
2018-12-11T20:30:47.943Z,102151.02
2018-12-11T20:33:17.568Z,102155.95
2018-12-11T20:35:46.978Z,102166.94
2018-12-11T20:38:17.021Z,102160.89
2018-12-11T20:40:46.378Z,102158.97
2018-12-11T20:43:16.441Z,102160.33
2018-12-11T20:46:05.758Z,102160.84
2018-12-11T20:48:54.694Z,102167.16
2018-12-11T20:51:45.140Z,102164.97
2018-12-11T20:54:16.221Z,102166.61
2018-12-11T20:56:46.251Z,102172.36
2018-12-11T20:59:15.768Z,102175.92
2018-12-11T21:01:45.044Z,102172.87
2018-12-11T21:04:14.348Z,102179.19
2018-12-11T21:06:43.603Z,102181.93
2018-12-11T21:09:16.179Z,102181.67
2018-12-11T21:11:45.454Z,102186.32
2018-12-11T21:14:14.727Z,102189.06
2018-12-11T21:16:44.089Z,102187.44
2018-12-11T21:19:13.550Z,102195.37
2018-12-11T21:21:43.050Z,102190.42
2018-12-11T21:27:01.596Z,102189.62
2018-12-11T21:29:50.528Z,102188.78
2018-12-11T21:32:19.829Z,102192.61
2018-12-11T21:34:49.097Z,102188.77
2018-12-11T21:37:18.399Z,102193.16
2018-12-11T21:39:47.668Z,102192.60
2018-12-11T21:42:16.966Z,102202.72
2018-12-11T21:44:46.284Z,102204.65
2018-12-11T21:47:15.573Z,102205.72
2018-12-11T21:49:44.830Z,102209.28
2018-12-11T21:52:14.112Z,102209.58
2018-12-11T21:54:43.388Z,102216.43
2018-12-11T21:57:12.672Z,102213.69
2018-12-11T21:59:41.932Z,102214.78
2018-12-11T22:02:11.199Z,102218.90
2018-12-11T22:04:40.453Z,102217.51
2018-12-11T22:07:09.728Z,102220.53
2018-12-11T22:09:39.010Z,102223.55
2018-12-11T22:14:57.523Z,102230.66
2018-12-11T22:17:26.812Z,102233.91
2018-12-11T22:19:56.068Z,102229.23
2018-12-11T22:22:25.347Z,102234.98
2018-12-11T22:24:54.597Z,102236.06
2018-12-11T22:27:23.862Z,102237.14
2018-12-11T22:30:12.200Z,102237.39
2018-12-11T22:32:41.466Z,102239.55
2018-12-11T22:35:10.743Z,102238.70
2018-12-11T22:37:40.012Z,102245.53
2018-12-11T22:40:09.289Z,102242.73
2018-12-11T22:42:38.565Z,102248.43
2018-12-11T22:45:07.843Z,102237.45
2018-12-11T22:47:37.116Z,102231.35
2018-12-11T22:50:06.427Z,102236.51
2018-12-11T22:52:35.699Z,102235.95
2018-12-11T22:55:04.984Z,102242.74
2018-12-11T22:57:34.246Z,102239.70
2018-12-11T23:00:03.528Z,102240.78
2018-12-11T23:02:32.790Z,102244.30
2018-12-11T23:05:02.072Z,102246.73
2018-12-11T23:10:19.731Z,102256.49
2018-12-11T23:12:48.997Z,102253.72
2018-12-11T23:15:18.270Z,102253.95
2018-12-11T23:17:47.538Z,102258.56
2018-12-11T23:20:16.821Z,102255.53
2018-12-11T23:22:46.081Z,102256.86
2018-12-11T23:25:15.358Z,102271.08
2018-12-11T23:27:44.617Z,102271.62
2018-12-11T23:30:13.885Z,102274.66
2018-12-11T23:32:43.150Z,102266.71
2018-12-11T23:37:47.979Z,102271.15
2018-12-11T23:40:17.264Z,102277.46
2018-12-11T23:42:46.521Z,102279.13
2018-12-11T23:45:15.802Z,102278.33
2018-12-11T23:47:45.067Z,102275.89
2018-12-11T23:50:14.343Z,102275.92
2018-12-11T23:52:43.590Z,102270.48
2018-12-11T23:55:12.868Z,102269.69
2018-12-11T23:57:42.125Z,102276.80
